sensor_id;sensor_type;location;lat;lon;timestamp;temperature;humidity
5041;DHT22;2539;52.568;13.364;2022-10-16T00:00:41;15.00;99.90
5041;DHT22;2539;52.568;13.364;2022-10-16T00:03:10;15.10;99.90
5041;DHT22;2539;52.568;13.364;2022-10-16T00:05:42;15.10;99.90
5041;DHT22;2539;52.568;13.364;2022-10-16T00:08:12;15.20;99.90
5041;DHT22;2539;52.568;13.364;2022-10-16T00:10:40;15.30;99.90
5041;DHT22;2539;52.568;13.364;2022-10-16T00:13:07;15.30;99.90
5041;DHT22;2539;52.568;13.364;2022-10-16T00:15:35;15.40;99.90
5041;DHT22;2539;52.568;13.364;2022-10-16T00:18:03;15.40;99.90
5041;DHT22;2539;52.568;13.364;2022-10-16T00:20:30;15.40;99.90
5041;DHT22;2539;52.568;13.364;2022-10-16T00:22:59;15.30;99.90
5041;DHT22;2539;52.568;13.364;2022-10-16T00:25:25;15.40;99.90
5041;DHT22;2539;52.568;13.364;2022-10-16T00:27:52;15.30;99.90
5041;DHT22;2539;52.568;13.364;2022-10-16T00:30:18;15.40;99.90
5041;DHT22;2539;52.568;13.364;2022-10-16T00:32:44;15.30;99.90
5041;DHT22;2539;52.568;13.364;2022-10-16T00:35:11;15.30;99.90
5041;DHT22;2539;52.568;13.364;2022-10-16T00:37:37;15.30;99.90
5041;DHT22;2539;52.568;13.364;2022-10-16T00:40:04;15.40;99.90
5041;DHT22;2539;52.568;13.364;2022-10-16T00:42:30;15.40;99.90
5041;DHT22;2539;52.568;13.364;2022-10-16T00:44:57;15.40;99.90
5041;DHT22;2539;52.568;13.364;2022-10-16T00:47:30;15.30;99.90
5041;DHT22;2539;52.568;13.364;2022-10-16T00:52:32;15.30;99.90
5041;DHT22;2539;52.568;13.364;2022-10-16T00:55:00;15.30;99.90
5041;DHT22;2539;52.568;13.364;2022-10-16T00:57:27;15.30;99.90
5041;DHT22;2539;52.568;13.364;2022-10-16T00:59:53;15.30;99.90
5041;DHT22;2539;52.568;13.364;2022-10-16T01:02:20;15.40;99.90
5041;DHT22;2539;52.568;13.364;2022-10-16T01:04:53;15.30;99.90
5041;DHT22;2539;52.568;13.364;2022-10-16T01:12:57;15.40;99.90
5041;DHT22;2539;52.568;13.364;2022-10-16T01:15:47;15.30;99.90
5041;DHT22;2539;52.568;13.364;2022-10-16T01:21:10;15.30;99.90
5041;DHT22;2539;52.568;13.364;2022-10-16T01:29:54;15.40;99.90
5041;DHT22;2539;52.568;13.364;2022-10-16T01:35:53;15.30;99.90
5041;DHT22;2539;52.568;13.364;2022-10-16T01:38:32;15.30;99.90
5041;DHT22;2539;52.568;13.364;2022-10-16T01:41:02;15.40;99.90
5041;DHT22;2539;52.568;13.364;2022-10-16T01:43:35;15.30;99.90
5041;DHT22;2539;52.568;13.364;2022-10-16T01:46:02;15.40;99.90
5041;DHT22;2539;52.568;13.364;2022-10-16T01:48:29;15.40;99.90
5041;DHT22;2539;52.568;13.364;2022-10-16T01:51:01;15.40;99.90
5041;DHT22;2539;52.568;13.364;2022-10-16T01:53:29;15.40;99.90
5041;DHT22;2539;52.568;13.364;2022-10-16T01:55:58;15.30;99.90
5041;DHT22;2539;52.568;13.364;2022-10-16T01:58:25;15.30;99.90
5041;DHT22;2539;52.568;13.364;2022-10-16T02:00:54;15.40;99.90
5041;DHT22;2539;52.568;13.364;2022-10-16T02:03:21;15.30;99.90
5041;DHT22;2539;52.568;13.364;2022-10-16T02:05:53;15.30;99.90
5041;DHT22;2539;52.568;13.364;2022-10-16T02:08:22;15.30;99.90
5041;DHT22;2539;52.568;13.364;2022-10-16T02:10:49;15.30;99.90
5041;DHT22;2539;52.568;13.364;2022-10-16T02:13:33;15.30;99.90
5041;DHT22;2539;52.568;13.364;2022-10-16T02:15:59;15.30;99.90
5041;DHT22;2539;52.568;13.364;2022-10-16T02:18:26;15.30;99.90
5041;DHT22;2539;52.568;13.364;2022-10-16T02:21:02;15.40;99.90
5041;DHT22;2539;52.568;13.364;2022-10-16T02:23:35;15.40;99.90
5041;DHT22;2539;52.568;13.364;2022-10-16T02:26:06;15.40;99.90
5041;DHT22;2539;52.568;13.364;2022-10-16T02:28:42;15.40;99.90
5041;DHT22;2539;52.568;13.364;2022-10-16T02:31:11;15.40;99.90
5041;DHT22;2539;52.568;13.364;2022-10-16T02:33:40;15.30;99.90
5041;DHT22;2539;52.568;13.364;2022-10-16T02:36:08;15.30;99.90
5041;DHT22;2539;52.568;13.364;2022-10-16T02:38:35;15.30;99.90
5041;DHT22;2539;52.568;13.364;2022-10-16T02:41:03;15.30;99.90
5041;DHT22;2539;52.568;13.364;2022-10-16T02:43:30;15.40;99.90
5041;DHT22;2539;52.568;13.364;2022-10-16T02:45:56;15.40;99.90
5041;DHT22;2539;52.568;13.364;2022-10-16T02:48:22;15.40;99.90
5041;DHT22;2539;52.568;13.364;2022-10-16T02:50:49;15.30;99.90
5041;DHT22;2539;52.568;13.364;2022-10-16T02:53:15;15.30;99.90
5041;DHT22;2539;52.568;13.364;2022-10-16T02:55:41;15.30;99.90
5041;DHT22;2539;52.568;13.364;2022-10-16T02:58:08;15.30;99.90
5041;DHT22;2539;52.568;13.364;2022-10-16T03:00:34;15.30;99.90
5041;DHT22;2539;52.568;13.364;2022-10-16T03:03:01;15.30;99.90
5041;DHT22;2539;52.568;13.364;2022-10-16T03:05:27;15.20;99.90
5041;DHT22;2539;52.568;13.364;2022-10-16T03:07:54;15.20;99.90
5041;DHT22;2539;52.568;13.364;2022-10-16T03:10:20;15.20;99.90
5041;DHT22;2539;52.568;13.364;2022-10-16T03:12:47;15.10;99.90
5041;DHT22;2539;52.568;13.364;2022-10-16T03:15:13;15.10;99.90
5041;DHT22;2539;52.568;13.364;2022-10-16T03:17:39;15.00;99.90
5041;DHT22;2539;52.568;13.364;2022-10-16T03:20:05;14.90;99.90
5041;DHT22;2539;52.568;13.364;2022-10-16T03:22:31;14.90;99.90
5041;DHT22;2539;52.568;13.364;2022-10-16T03:24:56;14.80;99.90
5041;DHT22;2539;52.568;13.364;2022-10-16T03:27:23;14.80;99.90
5041;DHT22;2539;52.568;13.364;2022-10-16T03:29:49;14.80;99.90
5041;DHT22;2539;52.568;13.364;2022-10-16T03:32:15;14.70;99.90
5041;DHT22;2539;52.568;13.364;2022-10-16T03:34:42;14.70;99.90
5041;DHT22;2539;52.568;13.364;2022-10-16T03:37:08;14.60;99.90
5041;DHT22;2539;52.568;13.364;2022-10-16T03:39:34;14.60;99.90
5041;DHT22;2539;52.568;13.364;2022-10-16T03:42:01;14.60;99.90
5041;DHT22;2539;52.568;13.364;2022-10-16T03:44:27;14.50;99.90
5041;DHT22;2539;52.568;13.364;2022-10-16T03:46:53;14.50;99.90
5041;DHT22;2539;52.568;13.364;2022-10-16T03:49:19;14.60;99.90
5041;DHT22;2539;52.568;13.364;2022-10-16T03:51:45;14.60;99.90
5041;DHT22;2539;52.568;13.364;2022-10-16T03:54:10;14.50;99.90
5041;DHT22;2539;52.568;13.364;2022-10-16T03:56:36;14.50;99.90
5041;DHT22;2539;52.568;13.364;2022-10-16T03:59:02;14.60;99.90
5041;DHT22;2539;52.568;13.364;2022-10-16T04:01:29;14.60;99.90
5041;DHT22;2539;52.568;13.364;2022-10-16T04:03:55;14.70;99.90
5041;DHT22;2539;52.568;13.364;2022-10-16T04:06:21;14.70;99.90
5041;DHT22;2539;52.568;13.364;2022-10-16T04:08:48;14.70;99.90
5041;DHT22;2539;52.568;13.364;2022-10-16T04:11:14;14.70;99.90
5041;DHT22;2539;52.568;13.364;2022-10-16T04:13:40;14.70;99.90
5041;DHT22;2539;52.568;13.364;2022-10-16T04:16:07;14.70;99.90
5041;DHT22;2539;52.568;13.364;2022-10-16T04:18:33;14.70;99.90
5041;DHT22;2539;52.568;13.364;2022-10-16T04:21:05;14.60;99.90
5041;DHT22;2539;52.568;13.364;2022-10-16T04:23:32;14.60;99.90
5041;DHT22;2539;52.568;13.364;2022-10-16T04:25:58;14.60;99.90
5041;DHT22;2539;52.568;13.364;2022-10-16T04:28:25;14.50;99.90
5041;DHT22;2539;52.568;13.364;2022-10-16T04:30:51;14.40;99.90
5041;DHT22;2539;52.568;13.364;2022-10-16T04:33:18;14.40;99.90
5041;DHT22;2539;52.568;13.364;2022-10-16T04:35:44;14.40;99.90
5041;DHT22;2539;52.568;13.364;2022-10-16T04:38:11;14.40;99.90
5041;DHT22;2539;52.568;13.364;2022-10-16T04:40:37;14.40;99.90
5041;DHT22;2539;52.568;13.364;2022-10-16T04:43:04;14.40;99.90
5041;DHT22;2539;52.568;13.364;2022-10-16T04:45:31;14.40;99.90
5041;DHT22;2539;52.568;13.364;2022-10-16T04:47:58;14.30;99.90
5041;DHT22;2539;52.568;13.364;2022-10-16T04:50:24;14.30;99.90
5041;DHT22;2539;52.568;13.364;2022-10-16T04:52:51;14.30;99.90
5041;DHT22;2539;52.568;13.364;2022-10-16T04:55:17;14.30;99.90
5041;DHT22;2539;52.568;13.364;2022-10-16T04:57:44;14.30;99.90
5041;DHT22;2539;52.568;13.364;2022-10-16T05:00:10;14.20;99.90
5041;DHT22;2539;52.568;13.364;2022-10-16T05:02:37;14.20;99.90
5041;DHT22;2539;52.568;13.364;2022-10-16T05:05:04;14.10;99.90
5041;DHT22;2539;52.568;13.364;2022-10-16T05:07:29;14.10;99.90
5041;DHT22;2539;52.568;13.364;2022-10-16T05:09:55;14.10;99.90
5041;DHT22;2539;52.568;13.364;2022-10-16T05:12:21;14.10;99.90
5041;DHT22;2539;52.568;13.364;2022-10-16T05:14:47;14.10;99.90
5041;DHT22;2539;52.568;13.364;2022-10-16T05:17:13;14.10;99.90
5041;DHT22;2539;52.568;13.364;2022-10-16T05:19:40;14.10;99.90
5041;DHT22;2539;52.568;13.364;2022-10-16T05:22:06;14.10;99.90
5041;DHT22;2539;52.568;13.364;2022-10-16T05:24:32;14.10;99.90
5041;DHT22;2539;52.568;13.364;2022-10-16T05:26:58;14.20;99.90
5041;DHT22;2539;52.568;13.364;2022-10-16T05:29:24;14.20;99.90
5041;DHT22;2539;52.568;13.364;2022-10-16T05:31:51;14.20;99.90
5041;DHT22;2539;52.568;13.364;2022-10-16T05:34:17;14.30;99.90
5041;DHT22;2539;52.568;13.364;2022-10-16T05:36:43;14.30;99.90
5041;DHT22;2539;52.568;13.364;2022-10-16T05:39:11;14.30;99.90
5041;DHT22;2539;52.568;13.364;2022-10-16T05:41:39;14.30;99.90
5041;DHT22;2539;52.568;13.364;2022-10-16T05:44:06;14.30;99.90
5041;DHT22;2539;52.568;13.364;2022-10-16T05:46:32;14.40;99.90
5041;DHT22;2539;52.568;13.364;2022-10-16T05:48:59;14.50;99.90
5041;DHT22;2539;52.568;13.364;2022-10-16T05:51:25;14.50;99.90
5041;DHT22;2539;52.568;13.364;2022-10-16T05:53:52;14.60;99.90
5041;DHT22;2539;52.568;13.364;2022-10-16T05:59:00;14.70;99.90
5041;DHT22;2539;52.568;13.364;2022-10-16T06:01:28;14.80;99.90
5041;DHT22;2539;52.568;13.364;2022-10-16T06:03:54;14.80;99.90
5041;DHT22;2539;52.568;13.364;2022-10-16T06:06:23;14.90;99.90
5041;DHT22;2539;52.568;13.364;2022-10-16T06:08:53;14.90;99.90
5041;DHT22;2539;52.568;13.364;2022-10-16T06:11:24;14.90;99.90
5041;DHT22;2539;52.568;13.364;2022-10-16T06:13:52;14.90;99.90
5041;DHT22;2539;52.568;13.364;2022-10-16T06:16:19;15.00;99.90
5041;DHT22;2539;52.568;13.364;2022-10-16T06:18:46;15.10;99.90
5041;DHT22;2539;52.568;13.364;2022-10-16T06:21:24;15.10;99.90
5041;DHT22;2539;52.568;13.364;2022-10-16T06:23:54;15.20;99.90
5041;DHT22;2539;52.568;13.364;2022-10-16T06:26:22;15.30;99.90
5041;DHT22;2539;52.568;13.364;2022-10-16T06:28:49;15.30;99.90
5041;DHT22;2539;52.568;13.364;2022-10-16T06:31:16;15.40;99.90
5041;DHT22;2539;52.568;13.364;2022-10-16T06:33:42;15.40;99.90
5041;DHT22;2539;52.568;13.364;2022-10-16T06:36:15;15.50;99.90
5041;DHT22;2539;52.568;13.364;2022-10-16T06:38:41;15.50;99.90
5041;DHT22;2539;52.568;13.364;2022-10-16T06:41:13;15.50;99.90
5041;DHT22;2539;52.568;13.364;2022-10-16T06:43:40;15.50;99.90
5041;DHT22;2539;52.568;13.364;2022-10-16T06:46:09;15.60;99.90
5041;DHT22;2539;52.568;13.364;2022-10-16T06:48:36;15.60;99.90
5041;DHT22;2539;52.568;13.364;2022-10-16T06:51:09;15.60;99.90
5041;DHT22;2539;52.568;13.364;2022-10-16T06:53:37;15.70;99.90
5041;DHT22;2539;52.568;13.364;2022-10-16T06:56:19;15.80;99.90
5041;DHT22;2539;52.568;13.364;2022-10-16T06:58:46;15.90;99.90
5041;DHT22;2539;52.568;13.364;2022-10-16T07:01:13;16.00;99.90
5041;DHT22;2539;52.568;13.364;2022-10-16T07:03:41;16.10;99.90
5041;DHT22;2539;52.568;13.364;2022-10-16T07:06:09;16.20;99.90
5041;DHT22;2539;52.568;13.364;2022-10-16T07:08:38;16.20;99.90
5041;DHT22;2539;52.568;13.364;2022-10-16T07:11:07;16.20;99.90
5041;DHT22;2539;52.568;13.364;2022-10-16T07:13:35;16.40;99.90
5041;DHT22;2539;52.568;13.364;2022-10-16T07:16:06;16.40;99.90
5041;DHT22;2539;52.568;13.364;2022-10-16T07:18:32;16.50;99.90
5041;DHT22;2539;52.568;13.364;2022-10-16T07:23:31;16.60;99.90
5041;DHT22;2539;52.568;13.364;2022-10-16T07:25:57;16.60;99.90
5041;DHT22;2539;52.568;13.364;2022-10-16T07:28:23;16.50;99.90
5041;DHT22;2539;52.568;13.364;2022-10-16T07:30:50;16.60;99.90
5041;DHT22;2539;52.568;13.364;2022-10-16T07:33:16;16.80;99.90
5041;DHT22;2539;52.568;13.364;2022-10-16T07:35:51;16.80;99.90
5041;DHT22;2539;52.568;13.364;2022-10-16T07:38:18;16.90;99.90
5041;DHT22;2539;52.568;13.364;2022-10-16T07:40:44;16.90;99.90
5041;DHT22;2539;52.568;13.364;2022-10-16T07:43:10;16.90;99.90
5041;DHT22;2539;52.568;13.364;2022-10-16T07:45:37;17.00;99.90
5041;DHT22;2539;52.568;13.364;2022-10-16T07:48:04;17.00;99.90
5041;DHT22;2539;52.568;13.364;2022-10-16T07:50:30;17.00;99.90
5041;DHT22;2539;52.568;13.364;2022-10-16T07:52:57;17.00;99.90
5041;DHT22;2539;52.568;13.364;2022-10-16T07:55:23;17.00;99.90
5041;DHT22;2539;52.568;13.364;2022-10-16T07:57:49;17.00;99.90
5041;DHT22;2539;52.568;13.364;2022-10-16T08:00:15;16.90;99.90
5041;DHT22;2539;52.568;13.364;2022-10-16T08:02:42;16.80;99.90
5041;DHT22;2539;52.568;13.364;2022-10-16T08:05:08;16.80;99.90
5041;DHT22;2539;52.568;13.364;2022-10-16T08:07:35;16.80;99.90
5041;DHT22;2539;52.568;13.364;2022-10-16T08:10:01;16.80;99.90
5041;DHT22;2539;52.568;13.364;2022-10-16T08:12:27;16.80;99.90
5041;DHT22;2539;52.568;13.364;2022-10-16T08:14:52;16.80;99.90
5041;DHT22;2539;52.568;13.364;2022-10-16T08:17:18;16.90;99.90
5041;DHT22;2539;52.568;13.364;2022-10-16T08:19:45;16.90;99.90
5041;DHT22;2539;52.568;13.364;2022-10-16T08:22:12;17.00;99.90
5041;DHT22;2539;52.568;13.364;2022-10-16T08:24:38;17.00;99.90
5041;DHT22;2539;52.568;13.364;2022-10-16T08:27:05;17.10;99.90
5041;DHT22;2539;52.568;13.364;2022-10-16T08:29:31;17.00;99.90
5041;DHT22;2539;52.568;13.364;2022-10-16T08:31:58;16.90;99.90
5041;DHT22;2539;52.568;13.364;2022-10-16T08:34:25;16.90;99.90
5041;DHT22;2539;52.568;13.364;2022-10-16T08:36:53;17.00;99.90
5041;DHT22;2539;52.568;13.364;2022-10-16T08:39:19;17.10;99.90
5041;DHT22;2539;52.568;13.364;2022-10-16T08:42:07;17.20;99.90
5041;DHT22;2539;52.568;13.364;2022-10-16T08:44:55;17.30;99.90
5041;DHT22;2539;52.568;13.364;2022-10-16T08:50:11;17.60;99.90
5041;DHT22;2539;52.568;13.364;2022-10-16T08:52:41;17.70;99.90
5041;DHT22;2539;52.568;13.364;2022-10-16T08:55:24;17.80;99.90
5041;DHT22;2539;52.568;13.364;2022-10-16T08:57:54;17.80;99.90
5041;DHT22;2539;52.568;13.364;2022-10-16T09:00:21;17.90;99.90
5041;DHT22;2539;52.568;13.364;2022-10-16T09:02:56;17.90;99.90
5041;DHT22;2539;52.568;13.364;2022-10-16T09:05:52;18.00;99.90
5041;DHT22;2539;52.568;13.364;2022-10-16T09:13:48;18.40;99.90
5041;DHT22;2539;52.568;13.364;2022-10-16T09:16:20;18.40;99.90
5041;DHT22;2539;52.568;13.364;2022-10-16T09:19:33;18.30;99.90
5041;DHT22;2539;52.568;13.364;2022-10-16T09:21:41;18.30;99.90
5041;DHT22;2539;52.568;13.364;2022-10-16T09:24:17;18.20;99.90
5041;DHT22;2539;52.568;13.364;2022-10-16T09:26:45;18.20;99.90
5041;DHT22;2539;52.568;13.364;2022-10-16T09:29:13;18.10;99.90
5041;DHT22;2539;52.568;13.364;2022-10-16T09:31:40;17.90;99.90
5041;DHT22;2539;52.568;13.364;2022-10-16T09:34:10;17.80;99.90
5041;DHT22;2539;52.568;13.364;2022-10-16T09:36:45;17.60;99.90
5041;DHT22;2539;52.568;13.364;2022-10-16T09:39:12;17.50;99.90
5041;DHT22;2539;52.568;13.364;2022-10-16T09:41:40;17.60;99.90
5041;DHT22;2539;52.568;13.364;2022-10-16T09:44:24;17.60;99.90
5041;DHT22;2539;52.568;13.364;2022-10-16T09:47:02;17.60;99.90
5041;DHT22;2539;52.568;13.364;2022-10-16T09:49:28;17.70;99.90
5041;DHT22;2539;52.568;13.364;2022-10-16T09:52:14;17.70;99.90
5041;DHT22;2539;52.568;13.364;2022-10-16T09:54:57;17.60;99.90
5041;DHT22;2539;52.568;13.364;2022-10-16T09:57:24;17.70;99.90
5041;DHT22;2539;52.568;13.364;2022-10-16T10:02:29;17.90;99.90
5041;DHT22;2539;52.568;13.364;2022-10-16T10:04:55;18.00;99.90
5041;DHT22;2539;52.568;13.364;2022-10-16T10:07:27;18.30;99.90
5041;DHT22;2539;52.568;13.364;2022-10-16T10:09:55;18.50;99.90
5041;DHT22;2539;52.568;13.364;2022-10-16T10:12:27;18.50;99.90
5041;DHT22;2539;52.568;13.364;2022-10-16T10:15:02;18.50;99.90
5041;DHT22;2539;52.568;13.364;2022-10-16T10:17:29;18.50;99.90
5041;DHT22;2539;52.568;13.364;2022-10-16T10:20:01;18.50;99.90
5041;DHT22;2539;52.568;13.364;2022-10-16T10:22:44;18.50;99.90
5041;DHT22;2539;52.568;13.364;2022-10-16T10:30:24;18.30;99.90
5041;DHT22;2539;52.568;13.364;2022-10-16T10:33:25;18.30;99.90
5041;DHT22;2539;52.568;13.364;2022-10-16T10:36:14;18.30;99.90
5041;DHT22;2539;52.568;13.364;2022-10-16T10:38:53;18.40;99.90
5041;DHT22;2539;52.568;13.364;2022-10-16T10:44:34;18.70;99.90
5041;DHT22;2539;52.568;13.364;2022-10-16T10:47:31;18.80;99.90
5041;DHT22;2539;52.568;13.364;2022-10-16T10:55:16;19.40;99.90
5041;DHT22;2539;52.568;13.364;2022-10-16T10:58:24;19.50;99.90
5041;DHT22;2539;52.568;13.364;2022-10-16T11:01:09;19.60;99.90
5041;DHT22;2539;52.568;13.364;2022-10-16T11:06:44;19.70;99.90
5041;DHT22;2539;52.568;13.364;2022-10-16T11:09:13;19.90;99.90
5041;DHT22;2539;52.568;13.364;2022-10-16T11:11:47;19.80;99.90
5041;DHT22;2539;52.568;13.364;2022-10-16T11:14:29;19.80;99.90
5041;DHT22;2539;52.568;13.364;2022-10-16T11:17:08;19.80;99.90
5041;DHT22;2539;52.568;13.364;2022-10-16T11:22:22;19.60;99.90
5041;DHT22;2539;52.568;13.364;2022-10-16T11:24:53;19.50;99.90
5041;DHT22;2539;52.568;13.364;2022-10-16T11:27:33;19.30;99.90
5041;DHT22;2539;52.568;13.364;2022-10-16T11:30:02;19.10;99.90
5041;DHT22;2539;52.568;13.364;2022-10-16T11:32:35;18.90;99.90
5041;DHT22;2539;52.568;13.364;2022-10-16T11:35:11;18.70;99.90
5041;DHT22;2539;52.568;13.364;2022-10-16T11:37:43;18.50;99.90
5041;DHT22;2539;52.568;13.364;2022-10-16T11:40:33;18.40;99.90
5041;DHT22;2539;52.568;13.364;2022-10-16T11:43:19;18.30;99.90
5041;DHT22;2539;52.568;13.364;2022-10-16T11:46:00;18.30;99.90
5041;DHT22;2539;52.568;13.364;2022-10-16T11:48:35;18.20;99.90
5041;DHT22;2539;52.568;13.364;2022-10-16T11:51:14;18.20;99.90
5041;DHT22;2539;52.568;13.364;2022-10-16T11:56:27;18.40;99.90
5041;DHT22;2539;52.568;13.364;2022-10-16T12:01:28;18.50;99.90
5041;DHT22;2539;52.568;13.364;2022-10-16T12:06:53;18.60;99.90
5041;DHT22;2539;52.568;13.364;2022-10-16T12:09:30;18.60;99.90
5041;DHT22;2539;52.568;13.364;2022-10-16T12:11:57;18.70;99.90
5041;DHT22;2539;52.568;13.364;2022-10-16T12:14:38;18.80;99.90
5041;DHT22;2539;52.568;13.364;2022-10-16T12:20:12;18.90;99.90
5041;DHT22;2539;52.568;13.364;2022-10-16T12:25:39;19.00;99.90
5041;DHT22;2539;52.568;13.364;2022-10-16T12:30:43;19.00;99.90
5041;DHT22;2539;52.568;13.364;2022-10-16T12:33:25;19.00;99.90
5041;DHT22;2539;52.568;13.364;2022-10-16T12:35:53;19.10;99.90
5041;DHT22;2539;52.568;13.364;2022-10-16T12:38:21;19.00;99.90
5041;DHT22;2539;52.568;13.364;2022-10-16T12:41:05;19.00;99.90
5041;DHT22;2539;52.568;13.364;2022-10-16T12:43:42;19.00;99.90
5041;DHT22;2539;52.568;13.364;2022-10-16T12:48:36;19.00;99.90
5041;DHT22;2539;52.568;13.364;2022-10-16T12:51:22;19.20;99.90
5041;DHT22;2539;52.568;13.364;2022-10-16T12:54:13;19.30;99.90
5041;DHT22;2539;52.568;13.364;2022-10-16T13:02:47;19.70;99.90
5041;DHT22;2539;52.568;13.364;2022-10-16T13:13:40;19.60;99.90
5041;DHT22;2539;52.568;13.364;2022-10-16T13:16:27;19.60;99.90
5041;DHT22;2539;52.568;13.364;2022-10-16T13:25:22;19.50;99.90
5041;DHT22;2539;52.568;13.364;2022-10-16T13:28:09;19.40;99.90
5041;DHT22;2539;52.568;13.364;2022-10-16T13:30:43;19.30;99.90
5041;DHT22;2539;52.568;13.364;2022-10-16T13:33:20;19.30;99.90
5041;DHT22;2539;52.568;13.364;2022-10-16T13:35:51;19.20;99.90
5041;DHT22;2539;52.568;13.364;2022-10-16T13:38:21;19.10;99.90
5041;DHT22;2539;52.568;13.364;2022-10-16T13:40:58;19.00;99.90
5041;DHT22;2539;52.568;13.364;2022-10-16T13:43:40;18.90;99.90
5041;DHT22;2539;52.568;13.364;2022-10-16T13:46:19;18.90;99.90
5041;DHT22;2539;52.568;13.364;2022-10-16T13:49:03;18.90;99.90
5041;DHT22;2539;52.568;13.364;2022-10-16T13:51:30;18.80;99.90
5041;DHT22;2539;52.568;13.364;2022-10-16T13:53:57;18.90;99.90
5041;DHT22;2539;52.568;13.364;2022-10-16T13:56:30;19.00;99.90
5041;DHT22;2539;52.568;13.364;2022-10-16T13:59:04;19.00;99.90
5041;DHT22;2539;52.568;13.364;2022-10-16T14:01:43;19.00;99.90
5041;DHT22;2539;52.568;13.364;2022-10-16T14:04:12;19.00;99.90
5041;DHT22;2539;52.568;13.364;2022-10-16T14:06:46;19.00;99.90
5041;DHT22;2539;52.568;13.364;2022-10-16T14:09:25;19.00;99.90
5041;DHT22;2539;52.568;13.364;2022-10-16T14:12:07;19.10;99.90
5041;DHT22;2539;52.568;13.364;2022-10-16T14:14:39;19.10;99.90
5041;DHT22;2539;52.568;13.364;2022-10-16T14:17:06;19.10;99.90
5041;DHT22;2539;52.568;13.364;2022-10-16T14:19:39;19.10;99.90
5041;DHT22;2539;52.568;13.364;2022-10-16T14:22:38;19.10;99.90
5041;DHT22;2539;52.568;13.364;2022-10-16T14:27:59;19.00;99.90
5041;DHT22;2539;52.568;13.364;2022-10-16T14:30:28;19.00;99.90
5041;DHT22;2539;52.568;13.364;2022-10-16T14:33:02;19.00;99.90
5041;DHT22;2539;52.568;13.364;2022-10-16T14:35:34;19.00;99.90
5041;DHT22;2539;52.568;13.364;2022-10-16T14:38:03;18.90;99.90
5041;DHT22;2539;52.568;13.364;2022-10-16T14:40:35;18.90;99.90
5041;DHT22;2539;52.568;13.364;2022-10-16T14:43:04;18.90;99.90
5041;DHT22;2539;52.568;13.364;2022-10-16T14:45:33;18.90;99.90
5041;DHT22;2539;52.568;13.364;2022-10-16T14:48:02;19.00;99.90
5041;DHT22;2539;52.568;13.364;2022-10-16T14:50:30;19.00;99.90
5041;DHT22;2539;52.568;13.364;2022-10-16T14:52:56;19.00;99.90
5041;DHT22;2539;52.568;13.364;2022-10-16T14:55:24;19.00;99.90
5041;DHT22;2539;52.568;13.364;2022-10-16T14:57:51;19.00;99.90
5041;DHT22;2539;52.568;13.364;2022-10-16T15:00:22;18.90;99.90
5041;DHT22;2539;52.568;13.364;2022-10-16T15:02:49;18.80;99.90
5041;DHT22;2539;52.568;13.364;2022-10-16T15:05:24;18.80;99.90
5041;DHT22;2539;52.568;13.364;2022-10-16T15:07:54;18.70;99.90
5041;DHT22;2539;52.568;13.364;2022-10-16T15:10:22;18.70;99.90
5041;DHT22;2539;52.568;13.364;2022-10-16T15:12:49;18.60;99.90
5041;DHT22;2539;52.568;13.364;2022-10-16T15:17:54;18.50;99.90
5041;DHT22;2539;52.568;13.364;2022-10-16T15:20:26;18.40;99.90
5041;DHT22;2539;52.568;13.364;2022-10-16T15:22:52;18.30;99.90
5041;DHT22;2539;52.568;13.364;2022-10-16T15:25:43;18.30;99.90
5041;DHT22;2539;52.568;13.364;2022-10-16T15:28:11;18.20;99.90
5041;DHT22;2539;52.568;13.364;2022-10-16T15:30:38;18.30;99.90
5041;DHT22;2539;52.568;13.364;2022-10-16T15:33:05;18.30;99.90
5041;DHT22;2539;52.568;13.364;2022-10-16T15:35:31;18.20;99.90
5041;DHT22;2539;52.568;13.364;2022-10-16T15:37:58;18.10;99.90
5041;DHT22;2539;52.568;13.364;2022-10-16T15:40:24;17.90;99.90
5041;DHT22;2539;52.568;13.364;2022-10-16T15:42:50;17.90;99.90
5041;DHT22;2539;52.568;13.364;2022-10-16T15:45:17;17.80;99.90
5041;DHT22;2539;52.568;13.364;2022-10-16T15:47:45;17.70;99.90
5041;DHT22;2539;52.568;13.364;2022-10-16T15:50:12;17.60;99.90
5041;DHT22;2539;52.568;13.364;2022-10-16T15:52:39;17.50;99.90
5041;DHT22;2539;52.568;13.364;2022-10-16T15:55:07;17.50;99.90
5041;DHT22;2539;52.568;13.364;2022-10-16T15:57:33;17.40;99.90
5041;DHT22;2539;52.568;13.364;2022-10-16T15:59:59;17.30;99.90
5041;DHT22;2539;52.568;13.364;2022-10-16T16:02:26;17.20;99.90
5041;DHT22;2539;52.568;13.364;2022-10-16T16:04:52;17.10;99.90
5041;DHT22;2539;52.568;13.364;2022-10-16T16:07:18;17.10;99.90
5041;DHT22;2539;52.568;13.364;2022-10-16T16:09:45;17.00;99.90
5041;DHT22;2539;52.568;13.364;2022-10-16T16:12:11;16.90;99.90
5041;DHT22;2539;52.568;13.364;2022-10-16T16:14:37;16.80;99.90
5041;DHT22;2539;52.568;13.364;2022-10-16T16:17:04;16.70;99.90
5041;DHT22;2539;52.568;13.364;2022-10-16T16:19:32;16.60;99.90
5041;DHT22;2539;52.568;13.364;2022-10-16T16:22:02;16.50;99.90
5041;DHT22;2539;52.568;13.364;2022-10-16T16:24:28;16.30;99.90
5041;DHT22;2539;52.568;13.364;2022-10-16T16:26:55;16.20;99.90
5041;DHT22;2539;52.568;13.364;2022-10-16T16:29:21;16.10;99.90
5041;DHT22;2539;52.568;13.364;2022-10-16T16:31:48;16.00;99.90
5041;DHT22;2539;52.568;13.364;2022-10-16T16:34:14;15.90;99.90
5041;DHT22;2539;52.568;13.364;2022-10-16T16:36:40;15.80;99.90
5041;DHT22;2539;52.568;13.364;2022-10-16T16:39:06;15.80;99.90
5041;DHT22;2539;52.568;13.364;2022-10-16T16:41:33;15.70;99.90
5041;DHT22;2539;52.568;13.364;2022-10-16T16:44:04;15.60;99.90
5041;DHT22;2539;52.568;13.364;2022-10-16T16:46:32;15.60;99.90
5041;DHT22;2539;52.568;13.364;2022-10-16T16:48:59;15.50;99.90
5041;DHT22;2539;52.568;13.364;2022-10-16T16:51:25;15.40;99.90
5041;DHT22;2539;52.568;13.364;2022-10-16T16:53:52;15.40;99.90
5041;DHT22;2539;52.568;13.364;2022-10-16T16:56:19;15.30;99.90
5041;DHT22;2539;52.568;13.364;2022-10-16T16:58:50;15.30;99.90
5041;DHT22;2539;52.568;13.364;2022-10-16T17:01:16;15.30;99.90
5041;DHT22;2539;52.568;13.364;2022-10-16T17:03:44;15.20;99.90
5041;DHT22;2539;52.568;13.364;2022-10-16T17:06:12;15.10;99.90
5041;DHT22;2539;52.568;13.364;2022-10-16T17:08:39;15.10;99.90
5041;DHT22;2539;52.568;13.364;2022-10-16T17:11:10;15.10;99.90
5041;DHT22;2539;52.568;13.364;2022-10-16T17:13:37;15.10;99.90
5041;DHT22;2539;52.568;13.364;2022-10-16T17:16:05;15.00;99.90
5041;DHT22;2539;52.568;13.364;2022-10-16T17:18:32;14.90;99.90
5041;DHT22;2539;52.568;13.364;2022-10-16T17:21:00;14.80;99.90
5041;DHT22;2539;52.568;13.364;2022-10-16T17:23:27;14.70;99.90
5041;DHT22;2539;52.568;13.364;2022-10-16T17:25:53;14.70;99.90
5041;DHT22;2539;52.568;13.364;2022-10-16T17:28:19;14.60;99.90
5041;DHT22;2539;52.568;13.364;2022-10-16T17:30:45;14.50;99.90
5041;DHT22;2539;52.568;13.364;2022-10-16T17:33:14;14.50;99.90
5041;DHT22;2539;52.568;13.364;2022-10-16T17:35:43;14.40;99.90
5041;DHT22;2539;52.568;13.364;2022-10-16T17:38:11;14.30;99.90
5041;DHT22;2539;52.568;13.364;2022-10-16T17:40:38;14.30;99.90
5041;DHT22;2539;52.568;13.364;2022-10-16T17:43:06;14.20;99.90